createdAt,value
2018-07-04T00:01:33.614Z,17.53
2018-07-04T00:04:20.351Z,17.52
2018-07-04T00:10:07.311Z,17.44
2018-07-04T00:12:54.091Z,17.42
2018-07-04T00:15:41.027Z,17.37
2018-07-04T00:18:27.802Z,17.37
2018-07-04T00:21:14.504Z,17.37
2018-07-04T00:24:01.172Z,17.39
2018-07-04T00:26:54.700Z,17.46
2018-07-04T00:29:41.415Z,17.49
2018-07-04T00:32:28.363Z,17.53
2018-07-04T00:35:15.109Z,17.48
2018-07-04T00:38:01.800Z,17.45
2018-07-04T00:40:48.584Z,17.43
2018-07-04T00:43:35.402Z,17.43
2018-07-04T00:46:22.213Z,17.37
2018-07-04T00:49:08.860Z,17.26
2018-07-04T00:51:55.668Z,17.16
2018-07-04T00:54:42.443Z,17.13
2018-07-04T00:57:29.305Z,17.26
2018-07-04T01:00:16.395Z,17.35
2018-07-04T01:03:03.184Z,17.40
2018-07-04T01:05:49.819Z,17.43
2018-07-04T01:08:36.420Z,17.49
2018-07-04T01:11:23.071Z,17.50
2018-07-04T01:14:10.821Z,17.47
2018-07-04T01:16:57.645Z,17.43
2018-07-04T01:19:44.446Z,17.38
2018-07-04T01:22:31.295Z,17.35
2018-07-04T01:25:18.071Z,17.31
2018-07-04T01:28:04.835Z,17.30
2018-07-04T01:30:51.623Z,17.29
2018-07-04T01:33:38.387Z,17.28
2018-07-04T01:36:25.080Z,17.24
2018-07-04T01:39:11.815Z,17.22
2018-07-04T01:41:58.533Z,17.20
2018-07-04T01:44:45.371Z,17.16
2018-07-04T01:47:32.000Z,17.18
2018-07-04T01:50:18.807Z,17.19
2018-07-04T01:53:05.539Z,17.12
2018-07-04T01:55:53.799Z,17.09
2018-07-04T01:58:40.708Z,17.04
2018-07-04T02:01:27.250Z,17.01
2018-07-04T02:04:13.956Z,17.00
2018-07-04T02:07:01.213Z,17.02
2018-07-04T02:09:48.043Z,16.97
2018-07-04T02:12:36.095Z,16.92
2018-07-04T02:15:23.073Z,16.91
2018-07-04T02:18:14.456Z,16.84
2018-07-04T02:21:01.227Z,16.49
2018-07-04T02:23:47.981Z,16.39
2018-07-04T02:26:34.771Z,16.41
2018-07-04T02:29:21.655Z,16.45
2018-07-04T02:32:08.603Z,16.50
2018-07-04T02:35:00.307Z,16.64
2018-07-04T02:37:47.128Z,16.66
2018-07-04T02:40:33.839Z,16.65
2018-07-04T02:43:20.581Z,16.60
2018-07-04T02:46:09.462Z,16.53
2018-07-04T02:48:56.369Z,16.50
2018-07-04T02:51:43.311Z,16.51
2018-07-04T02:54:29.992Z,16.51
2018-07-04T02:57:16.664Z,16.50
2018-07-04T03:00:03.310Z,16.47
2018-07-04T03:02:44.154Z,16.45
2018-07-04T03:05:30.883Z,16.46
2018-07-04T03:08:17.903Z,16.46
2018-07-04T03:11:04.200Z,16.52
2018-07-04T03:13:51.169Z,16.56
2018-07-04T03:16:37.569Z,16.55
2018-07-04T03:19:24.234Z,16.58
2018-07-04T03:22:04.781Z,16.62
2018-07-04T03:24:51.406Z,16.57
2018-07-04T03:27:38.005Z,16.57
2018-07-04T03:30:31.720Z,16.54
2018-07-04T03:33:18.530Z,16.55
2018-07-04T03:36:05.162Z,16.58
2018-07-04T03:38:51.753Z,16.59
2018-07-04T03:41:38.509Z,16.57
2018-07-04T03:44:25.094Z,16.63
2018-07-04T03:47:11.746Z,16.67
2018-07-04T03:49:58.539Z,16.73
2018-07-04T03:52:52.050Z,16.72
2018-07-04T03:55:38.540Z,16.76
2018-07-04T03:58:25.088Z,16.78
2018-07-04T04:01:11.781Z,16.79
2018-07-04T04:03:58.426Z,16.79
2018-07-04T04:06:45.241Z,16.85
2018-07-04T04:09:31.681Z,16.97
2018-07-04T04:12:19.292Z,17.05
2018-07-04T04:15:05.917Z,17.08
2018-07-04T04:17:52.516Z,17.15
2018-07-04T04:20:39.146Z,17.26
2018-07-04T04:23:25.652Z,17.40
2018-07-04T04:26:12.626Z,17.56
2018-07-04T04:28:59.218Z,17.71
2018-07-04T04:31:45.958Z,17.85
2018-07-04T04:34:32.562Z,17.94
2018-07-04T04:37:19.297Z,18.10
2018-07-04T04:40:06.101Z,18.15
2018-07-04T04:42:52.421Z,18.30
2018-07-04T04:45:38.824Z,18.31
2018-07-04T04:48:28.249Z,18.67
2018-07-04T04:51:14.837Z,19.31
2018-07-04T04:54:01.491Z,19.77
2018-07-04T04:56:48.081Z,20.15
2018-07-04T04:59:34.882Z,20.36
2018-07-04T05:02:21.409Z,20.32
2018-07-04T05:05:08.063Z,20.11
2018-07-04T05:07:54.657Z,19.91
2018-07-04T05:10:41.302Z,20.11
2018-07-04T05:13:27.895Z,20.35
2018-07-04T05:16:14.533Z,20.56
2018-07-04T05:19:01.346Z,20.59
2018-07-04T05:21:48.199Z,20.80
2018-07-04T05:24:34.981Z,20.74
2018-07-04T05:27:21.621Z,20.52
2018-07-04T05:30:08.425Z,20.60
2018-07-04T05:32:55.177Z,20.73
2018-07-04T05:35:47.312Z,20.86
2018-07-04T05:38:33.867Z,21.03
2018-07-04T05:41:20.181Z,21.30
2018-07-04T05:44:06.886Z,21.10
2018-07-04T05:46:53.478Z,21.22
2018-07-04T05:49:40.129Z,21.13
2018-07-04T05:52:26.716Z,21.28
2018-07-04T05:55:13.270Z,20.96
2018-07-04T05:57:59.765Z,21.19
2018-07-04T06:00:46.447Z,21.75
2018-07-04T06:03:33.106Z,21.78
2018-07-04T06:06:19.922Z,22.05
2018-07-04T06:09:06.596Z,22.22
2018-07-04T06:11:53.290Z,22.31
2018-07-04T06:14:40.044Z,22.37
2018-07-04T06:17:26.757Z,22.66
2018-07-04T06:20:13.325Z,23.81
2018-07-04T06:23:00.054Z,24.56
2018-07-04T06:25:46.514Z,25.08
2018-07-04T06:28:33.223Z,26.19
2018-07-04T06:31:13.872Z,27.07
2018-07-04T06:34:00.933Z,27.21
2018-07-04T06:36:47.518Z,27.65
2018-07-04T06:39:15.450Z,28.56
2018-07-04T06:44:43.759Z,28.33
2018-07-04T06:47:12.070Z,29.26
2018-07-04T06:49:40.200Z,28.55
2018-07-04T06:52:08.194Z,27.30
2018-07-04T06:54:36.194Z,26.91
2018-07-04T06:57:22.312Z,27.80
2018-07-04T06:59:50.387Z,28.64
2018-07-04T07:02:19.454Z,29.83
2018-07-04T07:05:06.422Z,29.61
2018-07-04T07:07:53.183Z,29.11
2018-07-04T07:10:39.815Z,29.09
2018-07-04T07:13:26.446Z,30.42
2018-07-04T07:16:13.248Z,31.07
2018-07-04T07:18:59.851Z,29.99
2018-07-04T07:21:46.421Z,30.43
2018-07-04T07:24:32.930Z,29.80
2018-07-04T07:27:19.441Z,29.57
2018-07-04T07:30:05.963Z,31.12
2018-07-04T07:32:52.918Z,30.62
2018-07-04T07:35:39.512Z,30.00
2018-07-04T07:38:26.414Z,29.11
2018-07-04T07:41:13.388Z,29.97
2018-07-04T07:44:00.374Z,29.34
2018-07-04T07:46:48.021Z,29.76
2018-07-04T07:49:34.938Z,29.11
2018-07-04T07:52:21.529Z,31.48
2018-07-04T07:55:08.423Z,31.40
2018-07-04T07:57:55.513Z,31.58
2018-07-04T08:00:42.096Z,31.67
2018-07-04T08:03:28.678Z,30.59
2018-07-04T08:06:15.495Z,31.57
2018-07-04T08:09:02.594Z,31.91
2018-07-04T08:11:49.522Z,31.33
2018-07-04T08:14:40.078Z,32.83
2018-07-04T08:17:26.639Z,30.73
2018-07-04T08:20:13.541Z,30.53
2018-07-04T08:23:00.633Z,30.03
2018-07-04T08:25:47.499Z,28.64
2018-07-04T08:28:34.597Z,26.40
2018-07-04T08:31:21.616Z,26.71
2018-07-04T08:34:08.645Z,27.65
2018-07-04T08:36:55.285Z,28.96
2018-07-04T08:39:41.829Z,28.75
2018-07-04T08:42:28.645Z,28.72
2018-07-04T08:45:15.657Z,28.15
2018-07-04T08:48:02.771Z,29.28
2018-07-04T08:50:50.120Z,29.26
2018-07-04T08:53:40.227Z,28.96
2018-07-04T08:56:26.850Z,28.93
2018-07-04T08:59:13.831Z,28.92
2018-07-04T09:02:00.439Z,29.95
2018-07-04T09:04:47.447Z,30.02
2018-07-04T09:07:28.809Z,28.81
2018-07-04T09:10:15.841Z,29.24
2018-07-04T09:13:02.874Z,29.90
2018-07-04T09:15:49.764Z,29.76
2018-07-04T09:18:36.486Z,31.25
2018-07-04T09:21:23.472Z,31.08
2018-07-04T09:24:10.131Z,30.43
2018-07-04T09:26:56.916Z,29.86
2018-07-04T09:29:43.892Z,31.29
2018-07-04T09:32:30.932Z,30.63
2018-07-04T09:35:18.070Z,31.25
2018-07-04T09:38:04.907Z,31.34
2018-07-04T09:40:51.949Z,30.92
2018-07-04T09:43:38.938Z,29.77
2018-07-04T09:46:25.581Z,29.75
2018-07-04T09:49:12.067Z,29.02
2018-07-04T09:51:58.949Z,28.41
2018-07-04T09:54:45.956Z,27.82
2018-07-04T09:57:32.585Z,27.65
2018-07-04T10:00:23.066Z,27.09
2018-07-04T10:03:10.781Z,27.35
2018-07-04T10:05:57.481Z,27.02
2018-07-04T10:08:44.138Z,26.86
2018-07-04T10:11:30.619Z,26.45
2018-07-04T10:14:17.534Z,26.36
2018-07-04T10:17:04.167Z,26.12
2018-07-04T10:19:50.809Z,26.16
2018-07-04T10:22:37.304Z,26.53
2018-07-04T10:25:24.018Z,26.64
2018-07-04T10:28:10.742Z,25.98
2018-07-04T10:30:57.298Z,25.57
2018-07-04T10:33:43.878Z,26.02
2018-07-04T10:36:30.534Z,26.07
2018-07-04T10:39:17.370Z,25.91
2018-07-04T10:41:57.853Z,25.51
2018-07-04T10:44:44.565Z,25.60
2018-07-04T10:47:31.395Z,25.93
2018-07-04T10:50:18.086Z,25.51
2018-07-04T10:53:04.722Z,25.49
2018-07-04T10:55:51.302Z,25.25
2018-07-04T10:58:38.108Z,24.88
2018-07-04T11:01:24.811Z,24.63
2018-07-04T11:04:11.360Z,24.68
2018-07-04T11:06:58.112Z,24.39
2018-07-04T11:09:44.798Z,24.58
2018-07-04T11:12:31.458Z,24.61
2018-07-04T11:15:18.219Z,24.54
2018-07-04T11:18:04.886Z,24.40
2018-07-04T11:20:51.983Z,24.43
2018-07-04T11:23:38.602Z,24.31
2018-07-04T11:26:25.446Z,24.54
2018-07-04T11:29:12.082Z,24.36
2018-07-04T11:31:58.733Z,24.24
2018-07-04T11:34:45.377Z,24.28
2018-07-04T11:37:31.884Z,24.12
2018-07-04T11:40:18.470Z,24.18
2018-07-04T11:43:05.131Z,24.72
2018-07-04T11:45:51.656Z,25.40
2018-07-04T11:48:19.938Z,26.11
2018-07-04T11:50:47.970Z,26.14
2018-07-04T11:53:16.157Z,26.03
2018-07-04T11:55:44.169Z,26.23
2018-07-04T11:58:12.027Z,26.23
2018-07-04T12:00:39.982Z,26.85
2018-07-04T12:03:23.128Z,27.23
2018-07-04T12:06:09.758Z,28.84
2018-07-04T12:08:37.712Z,29.98
2018-07-04T12:11:05.622Z,30.68
2018-07-04T12:13:33.502Z,30.83
2018-07-04T12:16:01.499Z,31.08
2018-07-04T12:18:29.468Z,32.58
2018-07-04T12:20:57.472Z,34.45
2018-07-04T12:23:25.613Z,35.01
2018-07-04T12:25:53.493Z,38.05
2018-07-04T12:28:21.387Z,39.52
2018-07-04T12:30:49.308Z,38.20
2018-07-04T12:33:17.249Z,38.43
2018-07-04T12:35:45.231Z,39.45
2018-07-04T12:38:13.154Z,39.04
2018-07-04T12:40:41.090Z,35.82
2018-07-04T12:43:08.974Z,35.24
2018-07-04T12:45:39.547Z,35.20
2018-07-04T12:48:04.884Z,37.09
2018-07-04T12:50:33.594Z,38.89
2018-07-04T12:53:01.658Z,37.06
2018-07-04T12:55:48.446Z,38.18
2018-07-04T12:58:34.978Z,36.44
2018-07-04T13:01:21.500Z,34.84
2018-07-04T13:04:08.375Z,38.97
2018-07-04T13:06:55.142Z,37.68
2018-07-04T13:09:41.759Z,39.08
2018-07-04T13:12:28.495Z,36.55
2018-07-04T13:15:15.176Z,37.01
2018-07-04T13:18:01.813Z,37.98
2018-07-04T13:20:48.493Z,36.67
2018-07-04T13:23:34.865Z,35.58
2018-07-04T13:26:21.496Z,37.84
2018-07-04T13:29:09.656Z,38.86
2018-07-04T13:31:50.343Z,39.77
2018-07-04T13:34:36.720Z,40.48
2018-07-04T13:37:23.465Z,38.48
2018-07-04T13:40:10.003Z,37.43
2018-07-04T13:42:56.711Z,38.48
2018-07-04T13:45:37.466Z,40.83
2018-07-04T13:48:24.220Z,41.19
2018-07-04T13:51:10.909Z,36.91
2018-07-04T13:53:57.653Z,38.99
2018-07-04T13:56:38.114Z,40.78
2018-07-04T13:59:24.662Z,38.11
2018-07-04T14:02:11.342Z,37.85
2018-07-04T14:04:57.947Z,35.83
2018-07-04T14:07:44.506Z,35.61
2018-07-04T14:10:31.396Z,37.10
2018-07-04T14:13:21.586Z,36.93
2018-07-04T14:16:08.316Z,35.12
2018-07-04T14:21:56.066Z,39.56
2018-07-04T14:24:42.643Z,35.16
2018-07-04T14:27:29.310Z,33.93
2018-07-04T14:30:16.023Z,32.60
2018-07-04T14:33:02.630Z,31.05
2018-07-04T14:35:51.470Z,32.59
2018-07-04T14:38:38.173Z,35.33
2018-07-04T14:41:24.712Z,33.48
2018-07-04T14:44:11.361Z,35.07
2018-07-04T14:46:57.984Z,37.86
2018-07-04T14:49:44.450Z,36.93
2018-07-04T14:52:31.137Z,37.21
2018-07-04T14:55:11.813Z,33.50
2018-07-04T14:57:58.597Z,36.79
2018-07-04T15:00:45.237Z,34.97
2018-07-04T15:03:31.922Z,34.07
2018-07-04T15:06:18.544Z,34.90
2018-07-04T15:09:05.277Z,35.78
2018-07-04T15:11:52.189Z,37.51
2018-07-04T15:14:38.829Z,36.59
2018-07-04T15:17:25.491Z,36.89
2018-07-04T15:20:11.859Z,38.67
2018-07-04T15:26:03.224Z,40.72
2018-07-04T15:28:49.882Z,40.51
2018-07-04T15:31:36.788Z,41.39
2018-07-04T15:34:23.621Z,40.00
2018-07-04T15:37:10.274Z,38.19
2018-07-04T15:39:57.084Z,39.14
2018-07-04T15:42:43.497Z,37.56
2018-07-04T15:45:30.284Z,38.63
2018-07-04T15:48:16.899Z,39.58
2018-07-04T15:51:03.654Z,40.94
2018-07-04T15:53:50.202Z,42.14
2018-07-04T15:56:31.129Z,39.49
2018-07-04T15:59:17.700Z,36.92
2018-07-04T16:02:04.442Z,35.16
2018-07-04T16:04:51.190Z,36.16
2018-07-04T16:07:37.742Z,36.49
2018-07-04T16:10:24.386Z,37.17
2018-07-04T16:13:10.797Z,35.01
2018-07-04T16:15:57.577Z,35.43
2018-07-04T16:18:44.335Z,36.01
2018-07-04T16:21:30.957Z,35.77
2018-07-04T16:24:17.546Z,35.49
2018-07-04T16:27:04.178Z,34.40
2018-07-04T16:29:50.805Z,35.35
2018-07-04T16:32:37.621Z,36.59
2018-07-04T16:35:24.046Z,36.21
2018-07-04T16:38:10.569Z,33.96
2018-07-04T16:40:57.309Z,33.33
2018-07-04T16:43:43.671Z,32.65
2018-07-04T16:46:42.144Z,30.90
2018-07-04T16:49:30.528Z,29.49
2018-07-04T16:52:17.182Z,29.04
2018-07-04T16:55:04.868Z,28.77
2018-07-04T16:57:51.661Z,27.87
2018-07-04T17:00:38.708Z,28.19
2018-07-04T17:03:25.294Z,28.13
2018-07-04T17:06:12.412Z,28.49
2018-07-04T17:08:59.085Z,28.88
2018-07-04T17:11:45.739Z,29.90
2018-07-04T17:14:32.562Z,30.82
2018-07-04T17:17:19.307Z,31.74
2018-07-04T17:20:06.049Z,32.18
2018-07-04T17:22:52.739Z,32.91
2018-07-04T17:25:39.252Z,32.52
2018-07-04T17:28:26.483Z,31.72
2018-07-04T17:31:13.091Z,31.35
2018-07-04T17:33:59.734Z,31.05
2018-07-04T17:36:46.383Z,30.99
2018-07-04T17:39:33.996Z,31.86
2018-07-04T17:42:20.858Z,32.57
2018-07-04T17:45:07.491Z,31.54
2018-07-04T17:47:54.173Z,31.62
2018-07-04T17:50:40.781Z,33.53
2018-07-04T17:53:27.487Z,34.96
2018-07-04T17:56:14.142Z,35.11
2018-07-04T17:59:00.964Z,35.13
2018-07-04T18:01:47.716Z,34.20
2018-07-04T18:04:34.426Z,34.74
2018-07-04T18:07:20.917Z,33.83
2018-07-04T18:10:07.572Z,32.14
2018-07-04T18:12:54.250Z,32.01
2018-07-04T18:15:40.911Z,32.72
2018-07-04T18:18:27.725Z,33.09
2018-07-04T18:21:19.610Z,32.97
2018-07-04T18:24:07.794Z,32.41
2018-07-04T18:26:54.572Z,31.63
2018-07-04T18:29:41.152Z,31.02
2018-07-04T18:32:27.797Z,30.54
2018-07-04T18:35:14.436Z,30.38
2018-07-04T18:38:01.392Z,29.80
2018-07-04T18:40:48.353Z,28.12
2018-07-04T18:43:37.458Z,26.91
2018-07-04T18:46:17.962Z,26.37
2018-07-04T18:49:04.796Z,25.84
2018-07-04T18:51:51.863Z,25.48
2018-07-04T18:54:38.776Z,25.11
2018-07-04T18:57:26.805Z,24.83
2018-07-04T19:00:13.915Z,24.31
2018-07-04T19:03:05.889Z,24.04
2018-07-04T19:05:52.762Z,23.87
2018-07-04T19:08:39.643Z,23.72
2018-07-04T19:11:26.688Z,23.49
2018-07-04T19:14:13.403Z,23.19
2018-07-04T19:17:00.303Z,22.83
2018-07-04T19:19:47.343Z,22.70
2018-07-04T19:22:34.212Z,22.55
2018-07-04T19:25:20.895Z,22.34
2018-07-04T19:28:07.945Z,22.21
2018-07-04T19:30:54.872Z,22.03
2018-07-04T19:33:41.615Z,21.90
2018-07-04T19:36:28.586Z,21.83
2018-07-04T19:39:19.659Z,21.76
2018-07-04T19:42:07.537Z,21.72
2018-07-04T19:44:54.736Z,21.68
2018-07-04T19:47:42.161Z,21.65
2018-07-04T19:50:29.255Z,21.62
2018-07-04T19:56:17.328Z,21.45
2018-07-04T19:59:04.840Z,21.27
2018-07-04T20:01:51.711Z,21.16
2018-07-04T20:04:38.484Z,21.05
2018-07-04T20:07:29.248Z,20.97
2018-07-04T20:10:16.099Z,20.88
2018-07-04T20:13:02.689Z,20.84
2018-07-04T20:15:53.162Z,20.81
2018-07-04T20:18:40.078Z,20.68
2018-07-04T20:21:28.165Z,20.58
2018-07-04T20:24:15.199Z,20.48
2018-07-04T20:27:02.018Z,20.34
2018-07-04T20:29:54.269Z,20.20
2018-07-04T20:32:42.499Z,20.11
2018-07-04T20:35:29.557Z,19.99
2018-07-04T20:38:17.443Z,19.90
2018-07-04T20:41:04.320Z,19.78
2018-07-04T20:43:51.336Z,19.67
2018-07-04T20:46:39.835Z,19.53
2018-07-04T20:49:26.939Z,19.42
2018-07-04T20:52:14.056Z,19.39
2018-07-04T20:55:01.057Z,19.36
2018-07-04T20:57:48.139Z,19.32
2018-07-04T21:00:37.130Z,19.26
2018-07-04T21:03:23.650Z,19.20
2018-07-04T21:06:12.768Z,19.16
2018-07-04T21:09:04.652Z,19.16
2018-07-04T21:11:51.746Z,19.20
2018-07-04T21:14:38.529Z,19.18
2018-07-04T21:17:29.062Z,19.18
2018-07-04T21:20:17.546Z,19.16
2018-07-04T21:23:04.632Z,18.98
2018-07-04T21:25:57.924Z,18.82
2018-07-04T21:28:45.133Z,18.77
2018-07-04T21:31:36.755Z,18.69
2018-07-04T21:34:23.747Z,18.71
2018-07-04T21:37:14.756Z,18.72
2018-07-04T21:40:02.741Z,18.70
2018-07-04T21:42:49.811Z,18.72
2018-07-04T21:45:37.555Z,18.71
2018-07-04T21:48:24.820Z,18.64
2018-07-04T21:51:11.864Z,18.59
2018-07-04T21:53:59.163Z,18.56
2018-07-04T21:56:46.716Z,18.59
2018-07-04T21:59:33.694Z,18.54
2018-07-04T22:02:25.712Z,18.49
2018-07-04T22:05:13.239Z,18.43
2018-07-04T22:08:00.052Z,18.37
2018-07-04T22:10:47.390Z,18.32
2018-07-04T22:13:34.328Z,18.25
2018-07-04T22:16:22.829Z,18.22
2018-07-04T22:19:09.876Z,18.19
2018-07-04T22:21:57.486Z,18.13
2018-07-04T22:24:44.856Z,18.09
2018-07-04T22:27:31.913Z,18.08
2018-07-04T22:30:18.958Z,18.03
2018-07-04T22:33:05.947Z,18.01
2018-07-04T22:35:53.474Z,17.93
2018-07-04T22:38:40.144Z,17.90
2018-07-04T22:41:27.417Z,17.83
2018-07-04T22:44:15.052Z,17.78
2018-07-04T22:47:01.954Z,17.74
2018-07-04T22:49:49.169Z,17.73
2018-07-04T22:52:36.112Z,17.69
2018-07-04T22:55:22.768Z,17.58
2018-07-04T22:58:09.423Z,17.47
2018-07-04T23:01:01.652Z,17.46
2018-07-04T23:03:48.325Z,17.44
2018-07-04T23:06:34.988Z,17.46
2018-07-04T23:09:21.799Z,17.42
2018-07-04T23:12:08.528Z,17.40
2018-07-04T23:17:58.903Z,17.33
2018-07-04T23:20:45.651Z,17.34
2018-07-04T23:23:32.759Z,17.31
2018-07-04T23:26:19.388Z,17.27
2018-07-04T23:29:06.117Z,17.24
2018-07-04T23:31:52.847Z,17.28
2018-07-04T23:34:45.256Z,17.31
2018-07-04T23:37:32.351Z,17.32
2018-07-04T23:40:19.107Z,17.34
2018-07-04T23:43:05.864Z,17.29
2018-07-04T23:45:52.656Z,17.25
2018-07-04T23:48:39.344Z,17.22
2018-07-04T23:51:26.756Z,17.16
2018-07-04T23:54:13.551Z,17.14
2018-07-04T23:57:00.200Z,17.14
2018-07-04T23:59:46.887Z,17.14
